Terminal Aerodrome Forecast
Issued by NWS

Home | Current Version | Previous Version | Text Only | Print | Product List | Glossary On
Versions: 1 2 3 4 5 6 7 8 9 10 11 12 13 14 15 16 17 18 19 20 21 22 23 24 25 26
000
FTUS45 KFGZ 022300
TAFGCN
TAF
KGCN 022338Z 0300/0324 22010G17KT 1SM -SHSN BKN007 OVC012
      TEMPO 0300/0301 1/2SM -SN FZFG OVC007
     FM030100 23007KT P6SM SCT008 BKN018
      TEMPO 0301/0305 1SM -SHSN BR OVC007
     FM031800 24011KT P6SM SCT020 BKN035 PROB30 0318/0324 4SM -SHSN
      SCT015 BKN025=

USA.gov is the U.S. government's official web portal to all federal, state and local government web resources and services.